createdAt,value
2018-02-07T00:00:25.434Z,3.89
2018-02-07T00:01:25.406Z,3.86
2018-02-07T00:02:25.398Z,3.9
2018-02-07T00:03:25.353Z,3.92
2018-02-07T00:04:25.283Z,3.9
2018-02-07T00:05:25.275Z,3.89
2018-02-07T00:06:25.334Z,3.88
2018-02-07T00:07:25.245Z,3.89
2018-02-07T00:08:25.295Z,3.9
2018-02-07T00:09:25.278Z,3.88
2018-02-07T00:10:25.157Z,3.88
2018-02-07T00:11:25.268Z,3.89
2018-02-07T00:12:25.236Z,3.87
2018-02-07T00:13:25.311Z,3.89
2018-02-07T00:14:25.326Z,3.89
2018-02-07T00:15:25.255Z,3.88
2018-02-07T00:16:25.262Z,3.88
2018-02-07T00:17:25.340Z,3.88
2018-02-07T00:18:25.336Z,3.87
2018-02-07T00:19:25.211Z,3.85
2018-02-07T00:20:25.194Z,3.87
2018-02-07T00:21:25.142Z,3.88
2018-02-07T00:22:25.182Z,3.84
2018-02-07T00:23:25.293Z,3.84
2018-02-07T00:24:25.278Z,3.83
2018-02-07T00:25:25.168Z,3.83
2018-02-07T00:26:25.174Z,3.83
2018-02-07T00:27:25.261Z,3.85
2018-02-07T00:28:25.151Z,3.86
2018-02-07T00:29:25.344Z,3.86
2018-02-07T00:30:25.260Z,3.84
2018-02-07T00:31:25.189Z,3.85
2018-02-07T00:32:25.311Z,3.83
2018-02-07T00:33:25.313Z,3.84
2018-02-07T00:34:25.286Z,3.82
2018-02-07T00:35:26.102Z,3.82
2018-02-07T00:36:26.065Z,3.83
2018-02-07T00:37:26.109Z,3.84
2018-02-07T00:38:26.236Z,3.84
2018-02-07T00:39:26.068Z,3.84
2018-02-07T00:40:26.211Z,3.84
2018-02-07T00:41:26.061Z,3.84
2018-02-07T00:42:26.068Z,3.83
2018-02-07T00:43:26.066Z,3.86
2018-02-07T00:44:26.233Z,3.83
2018-02-07T00:45:26.148Z,3.83
2018-02-07T00:46:26.062Z,3.82
2018-02-07T00:47:26.131Z,3.83
2018-02-07T00:48:26.147Z,3.82
2018-02-07T00:50:27.618Z,3.83
2018-02-07T00:51:26.183Z,3.85
2018-02-07T00:52:26.230Z,3.84
2018-02-07T00:53:26.194Z,3.84
2018-02-07T00:54:26.174Z,3.82
2018-02-07T00:55:26.192Z,3.85
2018-02-07T00:56:26.157Z,3.84
2018-02-07T00:57:26.160Z,3.82
2018-02-07T00:58:26.194Z,3.82
2018-02-07T00:59:26.203Z,3.83
2018-02-07T01:00:26.181Z,3.83
2018-02-07T01:01:26.210Z,3.85
2018-02-07T01:02:26.116Z,3.84
2018-02-07T01:03:26.087Z,3.82
2018-02-07T01:04:26.168Z,3.84
2018-02-07T01:05:25.920Z,3.83
2018-02-07T01:06:25.991Z,3.8
2018-02-07T01:07:26.042Z,3.83
2018-02-07T01:08:26.034Z,3.84
2018-02-07T01:09:26.061Z,3.83
2018-02-07T01:10:25.929Z,3.83
2018-02-07T01:11:26.027Z,3.81
2018-02-07T01:12:25.876Z,3.82
2018-02-07T01:13:25.894Z,3.82
2018-02-07T01:14:25.859Z,3.83
2018-02-07T01:15:25.990Z,3.83
2018-02-07T01:16:26.021Z,3.83
2018-02-07T01:17:25.978Z,3.83
2018-02-07T01:18:25.918Z,3.83
2018-02-07T01:19:25.867Z,3.83
2018-02-07T01:20:26.064Z,3.83
2018-02-07T01:21:25.912Z,3.82
2018-02-07T01:22:25.892Z,3.8
2018-02-07T01:23:25.968Z,3.82
2018-02-07T01:24:25.957Z,3.82
2018-02-07T01:25:25.999Z,3.81
2018-02-07T01:26:25.954Z,3.8
2018-02-07T01:27:26.014Z,3.81
2018-02-07T01:28:26.048Z,3.8
2018-02-07T01:29:25.987Z,3.78
2018-02-07T01:30:26.139Z,3.78
2018-02-07T01:31:26.066Z,3.77
2018-02-07T01:32:26.022Z,3.78
2018-02-07T01:33:25.937Z,3.76
2018-02-07T01:34:25.967Z,3.76
2018-02-07T01:35:26.005Z,3.76
2018-02-07T01:36:25.889Z,3.77
2018-02-07T01:37:25.958Z,3.76
2018-02-07T01:38:25.910Z,3.76
2018-02-07T01:39:25.817Z,3.75
2018-02-07T01:40:26.296Z,3.74
2018-02-07T01:41:25.992Z,3.74
2018-02-07T01:42:25.936Z,3.74
2018-02-07T01:43:25.881Z,3.74
2018-02-07T01:44:25.881Z,3.73
2018-02-07T01:45:25.871Z,3.72
2018-02-07T01:46:25.902Z,3.72
2018-02-07T01:47:25.771Z,3.71
2018-02-07T01:48:25.813Z,3.7
2018-02-07T01:49:25.903Z,3.71
2018-02-07T01:50:25.952Z,3.71
2018-02-07T01:51:25.854Z,3.71
2018-02-07T01:52:25.953Z,3.71
2018-02-07T01:53:25.935Z,3.71
2018-02-07T01:54:25.956Z,3.7
2018-02-07T01:55:25.821Z,3.71
2018-02-07T01:56:25.734Z,3.72
2018-02-07T01:57:25.833Z,3.71
2018-02-07T01:58:25.906Z,3.72
2018-02-07T01:59:25.935Z,3.72
2018-02-07T02:00:25.922Z,3.71
2018-02-07T02:01:25.812Z,3.7
2018-02-07T02:02:25.839Z,3.71
2018-02-07T02:03:25.904Z,3.7
2018-02-07T02:04:25.860Z,3.7
2018-02-07T02:05:25.931Z,3.7
2018-02-07T02:06:25.795Z,3.7
2018-02-07T02:07:25.700Z,3.69
2018-02-07T02:08:25.632Z,3.69
2018-02-07T02:09:25.725Z,3.7
2018-02-07T02:10:25.721Z,3.71
2018-02-07T02:11:25.611Z,3.7
2018-02-07T02:12:25.654Z,3.7
2018-02-07T02:13:25.551Z,3.69
2018-02-07T02:14:25.652Z,3.66
2018-02-07T02:15:25.504Z,3.66
2018-02-07T02:16:25.751Z,3.66
2018-02-07T02:17:25.647Z,3.67
2018-02-07T02:18:25.683Z,3.67
2018-02-07T02:19:25.579Z,3.66
2018-02-07T02:20:25.696Z,3.64
2018-02-07T02:21:25.741Z,3.64
2018-02-07T02:22:25.503Z,3.64
2018-02-07T02:23:25.709Z,3.68
2018-02-07T02:24:25.591Z,3.67
2018-02-07T02:25:25.667Z,3.67
2018-02-07T02:26:25.561Z,3.69
2018-02-07T02:27:25.600Z,3.69
2018-02-07T02:28:25.667Z,3.68
2018-02-07T02:29:25.778Z,3.66
2018-02-07T02:30:25.596Z,3.67
2018-02-07T02:31:25.559Z,3.67
2018-02-07T02:32:25.673Z,3.66
2018-02-07T02:33:25.571Z,3.65
2018-02-07T02:34:25.692Z,3.67
2018-02-07T02:35:25.613Z,3.65
2018-02-07T02:36:25.575Z,3.65
2018-02-07T02:37:25.734Z,3.66
2018-02-07T02:38:25.516Z,3.67
2018-02-07T02:39:25.576Z,3.66
2018-02-07T02:40:25.545Z,3.67
2018-02-07T02:41:25.497Z,3.68
2018-02-07T02:42:25.525Z,3.68
2018-02-07T02:43:25.486Z,3.67
2018-02-07T02:44:25.527Z,3.66
2018-02-07T02:45:25.761Z,3.67
2018-02-07T02:46:25.589Z,3.67
2018-02-07T02:47:25.548Z,3.66
2018-02-07T02:48:25.614Z,3.66
2018-02-07T02:49:25.637Z,3.66
2018-02-07T02:50:25.732Z,3.65
2018-02-07T02:51:25.635Z,3.65
2018-02-07T02:52:25.597Z,3.68
2018-02-07T02:53:25.532Z,3.67
2018-02-07T02:54:25.608Z,3.68
2018-02-07T02:55:25.589Z,3.68
2018-02-07T02:56:25.507Z,3.67
2018-02-07T02:57:25.549Z,3.64
2018-02-07T02:58:25.573Z,3.65
2018-02-07T02:59:25.637Z,3.65
2018-02-07T03:00:25.561Z,3.64
2018-02-07T03:01:25.512Z,3.64
2018-02-07T03:02:25.551Z,3.66
2018-02-07T03:03:25.481Z,3.66
2018-02-07T03:04:25.731Z,3.64
2018-02-07T03:05:25.532Z,3.64
2018-02-07T03:06:25.527Z,3.68
2018-02-07T03:07:25.691Z,3.67
2018-02-07T03:08:25.562Z,3.66
2018-02-07T03:09:25.451Z,3.66
2018-02-07T03:10:25.360Z,3.67
2018-02-07T03:11:25.332Z,3.66
2018-02-07T03:12:25.278Z,3.64
2018-02-07T03:13:25.423Z,3.65
2018-02-07T03:14:25.402Z,3.64
2018-02-07T03:15:25.413Z,3.65
2018-02-07T03:16:25.336Z,3.65
2018-02-07T03:17:25.356Z,3.66
2018-02-07T03:18:25.536Z,3.66
2018-02-07T03:19:25.305Z,3.64
2018-02-07T03:20:25.466Z,3.64
2018-02-07T03:21:25.350Z,3.67
2018-02-07T03:22:25.361Z,3.67
2018-02-07T03:23:25.461Z,3.67
2018-02-07T03:24:25.407Z,3.68
2018-02-07T03:25:25.389Z,3.67
2018-02-07T03:26:25.433Z,3.66
2018-02-07T03:27:25.450Z,3.63
2018-02-07T03:28:25.317Z,3.64
2018-02-07T03:29:25.525Z,3.65
2018-02-07T03:30:25.562Z,3.63
2018-02-07T03:31:25.356Z,3.62
2018-02-07T03:32:25.341Z,3.63
2018-02-07T03:33:25.391Z,3.63
2018-02-07T03:34:25.378Z,3.63
2018-02-07T03:35:25.374Z,3.64
2018-02-07T03:36:25.392Z,3.65
2018-02-07T03:37:25.458Z,3.65
2018-02-07T03:38:25.517Z,3.66
2018-02-07T03:39:25.330Z,3.65
2018-02-07T03:40:26.084Z,3.63
2018-02-07T03:41:26.771Z,3.62
2018-02-07T03:42:26.087Z,3.62
2018-02-07T03:43:26.576Z,3.63
2018-02-07T03:44:26.353Z,3.61
2018-02-07T03:45:26.116Z,3.63
2018-02-07T03:46:26.135Z,3.63
2018-02-07T03:47:26.132Z,3.64
2018-02-07T03:48:26.160Z,3.63
2018-02-07T03:49:26.117Z,3.63
2018-02-07T03:50:26.070Z,3.63
2018-02-07T03:51:26.253Z,3.63
2018-02-07T03:52:26.126Z,3.64
2018-02-07T03:53:26.033Z,3.64
2018-02-07T03:54:26.218Z,3.63
2018-02-07T03:55:26.214Z,3.62
2018-02-07T03:56:26.323Z,3.62
2018-02-07T03:57:26.251Z,3.62
2018-02-07T03:58:26.154Z,3.62
2018-02-07T03:59:26.225Z,3.61
2018-02-07T04:00:26.152Z,3.6
2018-02-07T04:01:26.152Z,3.6
2018-02-07T04:02:26.197Z,3.62
2018-02-07T04:03:26.342Z,3.61
2018-02-07T04:04:26.549Z,3.62
2018-02-07T04:05:26.249Z,3.62
2018-02-07T04:06:26.087Z,3.61
2018-02-07T04:07:26.291Z,3.63
2018-02-07T04:08:26.267Z,3.62
2018-02-07T04:09:26.321Z,3.6
2018-02-07T04:11:26.689Z,3.59
2018-02-07T04:12:26.227Z,3.61
2018-02-07T04:13:26.306Z,3.61
2018-02-07T04:14:26.602Z,3.6
2018-02-07T04:15:26.118Z,3.6
2018-02-07T04:16:26.247Z,3.61
2018-02-07T04:17:26.228Z,3.61
2018-02-07T04:18:26.255Z,3.6
2018-02-07T04:19:26.150Z,3.58
2018-02-07T04:20:26.214Z,3.57
2018-02-07T04:21:26.207Z,3.63
2018-02-07T04:22:26.110Z,3.61
2018-02-07T04:23:26.157Z,3.61
2018-02-07T04:24:26.176Z,3.6
2018-02-07T04:25:26.182Z,3.59
2018-02-07T04:26:26.221Z,3.59
2018-02-07T04:27:26.100Z,3.61
2018-02-07T04:28:26.258Z,3.61
2018-02-07T04:29:26.112Z,3.59
2018-02-07T04:30:26.310Z,3.61
2018-02-07T04:31:26.145Z,3.61
2018-02-07T04:32:26.229Z,3.6
2018-02-07T04:33:26.260Z,3.61
2018-02-07T04:34:26.309Z,3.61
2018-02-07T04:35:26.476Z,3.6
2018-02-07T04:36:26.313Z,3.62
2018-02-07T04:37:26.300Z,3.62
2018-02-07T04:38:26.191Z,3.61
2018-02-07T04:39:26.189Z,3.6
2018-02-07T04:40:26.113Z,3.59
2018-02-07T04:41:26.078Z,3.61
2018-02-07T04:42:25.846Z,3.61
2018-02-07T04:43:26.063Z,3.59
2018-02-07T04:44:25.995Z,3.6
2018-02-07T04:45:25.972Z,3.57
2018-02-07T04:46:26.044Z,3.56
2018-02-07T04:47:25.890Z,3.59
2018-02-07T04:48:25.847Z,3.58
2018-02-07T04:49:25.823Z,3.57
2018-02-07T04:50:25.996Z,3.56
2018-02-07T04:51:25.989Z,3.59
2018-02-07T04:52:26.013Z,3.6
2018-02-07T04:53:25.874Z,3.58
2018-02-07T04:54:25.829Z,3.57
2018-02-07T04:55:26.054Z,3.55
2018-02-07T04:56:26.038Z,3.57
2018-02-07T04:57:25.808Z,3.56
2018-02-07T04:58:25.909Z,3.55
2018-02-07T04:59:25.968Z,3.56
2018-02-07T05:00:25.902Z,3.57
2018-02-07T05:01:25.930Z,3.57
2018-02-07T05:02:25.927Z,3.56
2018-02-07T05:03:26.742Z,3.56
2018-02-07T05:04:25.962Z,3.56
2018-02-07T05:05:25.885Z,3.55
2018-02-07T05:06:26.005Z,3.55
2018-02-07T05:07:25.858Z,3.55
2018-02-07T05:08:25.955Z,3.54
2018-02-07T05:09:25.820Z,3.54
2018-02-07T05:10:25.965Z,3.53
2018-02-07T05:11:25.852Z,3.53
2018-02-07T05:12:25.595Z,3.52
2018-02-07T05:13:25.642Z,3.52
2018-02-07T05:14:25.804Z,3.52
2018-02-07T05:15:25.648Z,3.5
2018-02-07T05:16:25.819Z,3.51
2018-02-07T05:17:25.809Z,3.51
2018-02-07T05:18:25.783Z,3.51
2018-02-07T05:19:25.771Z,3.5
2018-02-07T05:20:25.601Z,3.49
2018-02-07T05:21:25.816Z,3.49
2018-02-07T05:22:25.772Z,3.49
2018-02-07T05:23:25.818Z,3.48
2018-02-07T05:24:25.794Z,3.49
2018-02-07T05:25:25.790Z,3.48
2018-02-07T05:26:25.609Z,3.49
2018-02-07T05:27:25.618Z,3.5
2018-02-07T05:28:25.686Z,3.51
2018-02-07T05:29:25.644Z,3.5
2018-02-07T05:30:25.627Z,3.49
2018-02-07T05:31:25.683Z,3.5
2018-02-07T05:32:25.610Z,3.5
2018-02-07T05:33:25.685Z,3.49
2018-02-07T05:34:25.740Z,3.48
2018-02-07T05:35:25.764Z,3.47
2018-02-07T05:36:25.793Z,3.48
2018-02-07T05:37:25.722Z,3.48
2018-02-07T05:38:25.640Z,3.48
2018-02-07T05:39:25.609Z,3.47
2018-02-07T05:40:25.630Z,3.47
2018-02-07T05:41:26.116Z,3.47
2018-02-07T05:42:25.966Z,3.47
2018-02-07T05:43:26.641Z,3.47
2018-02-07T05:44:25.886Z,3.48
2018-02-07T05:45:26.088Z,3.47
2018-02-07T05:46:25.880Z,3.48
2018-02-07T05:47:25.929Z,3.48
2018-02-07T05:48:26.065Z,3.48
2018-02-07T05:49:25.991Z,3.48
2018-02-07T05:50:26.044Z,3.47
2018-02-07T05:51:26.036Z,3.45
2018-02-07T05:52:26.047Z,3.46
2018-02-07T05:53:25.954Z,3.47
2018-02-07T05:54:25.914Z,3.47
2018-02-07T05:55:26.079Z,3.48
2018-02-07T05:56:26.008Z,3.47
2018-02-07T05:57:25.929Z,3.46
2018-02-07T05:58:26.128Z,3.47
2018-02-07T05:59:26.015Z,3.47
2018-02-07T06:00:26.099Z,3.47
2018-02-07T06:01:25.953Z,3.47
2018-02-07T06:02:26.023Z,3.47
2018-02-07T06:03:26.000Z,3.46
2018-02-07T06:04:26.195Z,3.46
2018-02-07T06:05:26.048Z,3.46
2018-02-07T06:06:26.055Z,3.46
2018-02-07T06:07:26.218Z,3.46
2018-02-07T06:08:26.032Z,3.47
2018-02-07T06:09:26.083Z,3.46
2018-02-07T06:10:25.993Z,3.47
2018-02-07T06:11:25.987Z,3.47
2018-02-07T06:12:25.918Z,3.46
2018-02-07T06:13:26.044Z,3.47
2018-02-07T06:14:25.679Z,3.48
2018-02-07T06:15:25.609Z,3.47
2018-02-07T06:16:25.747Z,3.46
2018-02-07T06:17:25.968Z,3.45
2018-02-07T06:18:26.107Z,3.46
2018-02-07T06:19:25.733Z,3.48
2018-02-07T06:20:25.669Z,3.48
2018-02-07T06:21:25.602Z,3.47
2018-02-07T06:22:25.620Z,3.46
2018-02-07T06:23:25.550Z,3.46
2018-02-07T06:24:25.858Z,3.46
2018-02-07T06:25:25.723Z,3.47
2018-02-07T06:26:25.688Z,3.49
2018-02-07T06:27:25.743Z,3.46
2018-02-07T06:28:25.829Z,3.46
2018-02-07T06:29:25.632Z,3.45
2018-02-07T06:30:25.790Z,3.46
2018-02-07T06:31:25.612Z,3.46
2018-02-07T06:32:25.638Z,3.46
2018-02-07T06:33:25.658Z,3.46
2018-02-07T06:34:25.768Z,3.46
2018-02-07T06:35:25.718Z,3.44
2018-02-07T06:36:25.736Z,3.44
2018-02-07T06:37:25.880Z,3.44
2018-02-07T06:38:25.739Z,3.44
2018-02-07T06:39:25.701Z,3.44
2018-02-07T06:40:25.695Z,3.43
2018-02-07T06:41:25.812Z,3.42
2018-02-07T06:42:25.699Z,3.44
2018-02-07T06:43:25.613Z,3.46
2018-02-07T06:44:25.456Z,3.45
2018-02-07T06:45:25.653Z,3.44
2018-02-07T06:46:25.443Z,3.44
2018-02-07T06:47:25.572Z,3.43
2018-02-07T06:48:25.547Z,3.42
2018-02-07T06:49:25.571Z,3.39
2018-02-07T06:50:26.674Z,3.41
2018-02-07T06:51:26.789Z,3.39
2018-02-07T06:52:25.665Z,3.39
2018-02-07T06:53:25.865Z,3.43
2018-02-07T06:54:25.419Z,3.44
2018-02-07T06:55:25.498Z,3.45
2018-02-07T06:56:25.554Z,3.46
2018-02-07T06:57:25.498Z,3.58
2018-02-07T06:58:25.418Z,3.62
2018-02-07T06:59:25.570Z,3.53
2018-02-07T07:00:25.450Z,3.49
2018-02-07T07:01:25.533Z,3.49
2018-02-07T07:02:25.630Z,3.47
2018-02-07T07:03:25.573Z,3.46
2018-02-07T07:04:25.404Z,3.45
2018-02-07T07:05:25.513Z,3.46
2018-02-07T07:06:25.423Z,3.45
2018-02-07T07:07:25.482Z,3.47
2018-02-07T07:08:25.532Z,3.47
2018-02-07T07:09:25.496Z,3.46
2018-02-07T07:10:25.385Z,3.47
2018-02-07T07:11:25.512Z,3.47
2018-02-07T07:12:25.532Z,3.46
2018-02-07T07:13:25.467Z,3.47
2018-02-07T07:14:25.533Z,3.46
2018-02-07T07:15:25.388Z,3.46
2018-02-07T07:16:25.515Z,3.45
2018-02-07T07:17:25.572Z,3.46
2018-02-07T07:18:25.425Z,3.46
2018-02-07T07:19:25.431Z,3.45
2018-02-07T07:20:25.596Z,3.46
2018-02-07T07:21:25.403Z,3.47
2018-02-07T07:22:25.490Z,3.46
2018-02-07T07:23:25.498Z,3.44
2018-02-07T07:24:25.489Z,3.45
2018-02-07T07:25:25.428Z,3.46
2018-02-07T07:26:25.474Z,3.45
2018-02-07T07:27:25.542Z,3.45
2018-02-07T07:28:25.582Z,3.46
2018-02-07T07:29:25.575Z,3.47
2018-02-07T07:30:25.491Z,3.46
2018-02-07T07:31:25.505Z,3.44
2018-02-07T07:32:26.142Z,3.45
2018-02-07T07:33:25.374Z,3.47
2018-02-07T07:34:25.465Z,3.46
2018-02-07T07:35:25.452Z,3.46
2018-02-07T07:36:25.344Z,3.47
2018-02-07T07:37:25.497Z,3.47
2018-02-07T07:38:25.532Z,3.47
2018-02-07T07:39:25.609Z,3.47
2018-02-07T07:40:25.491Z,3.47
2018-02-07T07:41:25.549Z,3.49
2018-02-07T07:42:25.540Z,3.48
2018-02-07T07:43:25.569Z,3.48
2018-02-07T07:44:25.587Z,3.47
2018-02-07T07:45:25.584Z,3.46
2018-02-07T07:46:25.560Z,3.46
2018-02-07T07:47:25.606Z,3.45
2018-02-07T07:48:25.582Z,3.49
2018-02-07T07:49:25.562Z,3.49
2018-02-07T07:50:25.729Z,3.5
2018-02-07T07:51:25.497Z,3.49
2018-02-07T07:52:25.493Z,3.5
2018-02-07T07:53:25.419Z,3.51
2018-02-07T07:54:25.561Z,3.5
2018-02-07T07:55:25.409Z,3.5
2018-02-07T07:56:25.492Z,3.5
2018-02-07T07:57:25.513Z,3.52
2018-02-07T07:58:25.466Z,3.51
2018-02-07T07:59:25.537Z,3.51
2018-02-07T08:00:25.701Z,3.51
2018-02-07T08:01:25.577Z,3.51
2018-02-07T08:02:25.465Z,3.52
2018-02-07T08:03:25.551Z,3.51
2018-02-07T08:04:25.417Z,3.53
2018-02-07T08:05:25.573Z,3.52
2018-02-07T08:06:25.378Z,3.54
2018-02-07T08:07:25.679Z,3.54
2018-02-07T08:08:25.575Z,3.55
2018-02-07T08:09:25.461Z,3.55
2018-02-07T08:10:25.591Z,3.55
2018-02-07T08:11:25.598Z,3.54
2018-02-07T08:12:25.503Z,3.55
2018-02-07T08:13:25.412Z,3.54
2018-02-07T08:14:25.606Z,3.55
2018-02-07T08:15:25.380Z,3.54
2018-02-07T08:16:25.520Z,3.54
2018-02-07T08:17:25.517Z,3.56
2018-02-07T08:18:25.524Z,3.57
2018-02-07T08:19:25.729Z,3.56
2018-02-07T08:20:25.602Z,3.55
2018-02-07T08:21:25.522Z,3.57
2018-02-07T08:22:25.609Z,3.57
2018-02-07T08:23:25.600Z,3.55
2018-02-07T08:24:25.710Z,3.57
2018-02-07T08:25:25.653Z,3.55
2018-02-07T08:26:25.506Z,3.58
2018-02-07T08:27:25.684Z,3.57
2018-02-07T08:28:25.610Z,3.61
2018-02-07T08:29:25.691Z,3.62
2018-02-07T08:30:25.597Z,3.64
2018-02-07T08:31:25.596Z,3.64
2018-02-07T08:32:25.449Z,3.64
2018-02-07T08:33:25.501Z,3.65
2018-02-07T08:34:25.611Z,3.64
2018-02-07T08:35:25.480Z,3.64
2018-02-07T08:36:25.697Z,3.62
2018-02-07T08:37:25.489Z,3.63
2018-02-07T08:38:25.490Z,3.66
2018-02-07T08:39:25.563Z,3.68
2018-02-07T08:40:25.624Z,3.68
2018-02-07T08:41:25.670Z,3.69
2018-02-07T08:42:25.609Z,3.66
2018-02-07T08:43:25.798Z,3.69
2018-02-07T08:44:25.661Z,3.72
2018-02-07T08:45:25.653Z,3.73
2018-02-07T08:46:25.492Z,3.71
2018-02-07T08:47:25.598Z,3.76
2018-02-07T08:48:25.505Z,3.77
2018-02-07T08:49:25.577Z,3.77
2018-02-07T08:50:25.550Z,3.78
2018-02-07T08:51:25.531Z,3.77
2018-02-07T08:52:25.472Z,3.78
2018-02-07T08:53:25.548Z,3.76
2018-02-07T08:54:25.608Z,3.8
2018-02-07T08:55:25.503Z,3.82
2018-02-07T08:56:25.629Z,3.84
2018-02-07T08:57:25.546Z,3.84
2018-02-07T08:58:25.576Z,3.82
2018-02-07T08:59:25.689Z,3.88
2018-02-07T09:00:25.898Z,3.86
2018-02-07T09:01:25.471Z,3.84
2018-02-07T09:02:25.530Z,3.87
2018-02-07T09:03:25.536Z,3.87
2018-02-07T09:04:25.649Z,3.87
2018-02-07T09:05:25.502Z,3.86
2018-02-07T09:06:25.455Z,3.91
2018-02-07T09:07:25.397Z,3.91
2018-02-07T09:08:25.465Z,3.93
2018-02-07T09:09:25.520Z,3.91
2018-02-07T09:10:25.551Z,3.92
2018-02-07T09:11:25.604Z,3.92
2018-02-07T09:12:25.508Z,3.92
2018-02-07T09:13:25.487Z,3.93
2018-02-07T09:14:25.679Z,3.91
2018-02-07T09:15:25.530Z,3.95
2018-02-07T09:16:25.604Z,3.96
2018-02-07T09:17:25.428Z,3.96
2018-02-07T09:18:25.582Z,3.96
2018-02-07T09:19:25.507Z,4
2018-02-07T09:20:25.593Z,4.01
2018-02-07T09:21:25.625Z,4.01
2018-02-07T09:22:25.733Z,4.02
2018-02-07T09:23:25.452Z,4.02
2018-02-07T09:24:25.490Z,3.98
2018-02-07T09:25:25.461Z,3.98
2018-02-07T09:26:25.366Z,3.97
2018-02-07T09:27:25.411Z,3.98
2018-02-07T09:28:25.539Z,3.98
2018-02-07T09:29:25.534Z,3.97
2018-02-07T09:30:25.595Z,3.99
2018-02-07T09:31:25.469Z,3.98
2018-02-07T09:32:25.427Z,3.99
2018-02-07T09:33:25.398Z,4.01
2018-02-07T09:34:25.520Z,4
2018-02-07T09:35:25.621Z,4
2018-02-07T09:36:26.458Z,4
2018-02-07T09:37:25.394Z,4.01
2018-02-07T09:38:25.394Z,4.03
2018-02-07T09:39:25.547Z,4.03
2018-02-07T09:40:25.496Z,4.01
2018-02-07T09:41:25.403Z,4.01
2018-02-07T09:42:25.519Z,4.01
2018-02-07T09:43:25.658Z,4.02
2018-02-07T09:44:25.383Z,4.01
2018-02-07T09:45:25.445Z,4.02
2018-02-07T09:46:25.460Z,4.02
2018-02-07T09:47:25.546Z,4.05
2018-02-07T09:48:25.522Z,4.04
2018-02-07T09:49:25.334Z,4.02
2018-02-07T09:50:25.403Z,4.05
2018-02-07T09:51:25.465Z,4.06
2018-02-07T09:52:25.300Z,4.05
2018-02-07T09:53:25.406Z,4.07
2018-02-07T09:54:25.423Z,4.05
2018-02-07T09:55:25.475Z,4.04
2018-02-07T09:56:25.456Z,4.05
2018-02-07T09:57:25.443Z,4.06
2018-02-07T09:58:25.410Z,4.07
2018-02-07T09:59:25.453Z,4.08
2018-02-07T10:00:25.423Z,4.09
2018-02-07T10:01:25.418Z,4.1
2018-02-07T10:02:25.425Z,4.09
2018-02-07T10:03:25.354Z,4.11
2018-02-07T10:04:25.380Z,4.11
2018-02-07T10:05:25.486Z,4.12
2018-02-07T10:06:25.472Z,4.12
2018-02-07T10:07:25.334Z,4.13
2018-02-07T10:08:25.400Z,4.14
2018-02-07T10:09:25.442Z,4.14
2018-02-07T10:10:25.377Z,4.15
2018-02-07T10:11:25.542Z,4.14
2018-02-07T10:12:25.415Z,4.13
2018-02-07T10:13:25.449Z,4.15
2018-02-07T10:14:25.541Z,4.11
2018-02-07T10:15:25.509Z,4.1
2018-02-07T10:16:25.449Z,4.13
2018-02-07T10:17:25.545Z,4.12
2018-02-07T10:18:25.525Z,4.12
2018-02-07T10:19:25.543Z,4.13
2018-02-07T10:20:25.485Z,4.12
2018-02-07T10:21:25.402Z,4.13
2018-02-07T10:22:25.392Z,4.14
2018-02-07T10:23:25.346Z,4.15
2018-02-07T10:24:25.543Z,4.11
2018-02-07T10:25:25.345Z,4.12
2018-02-07T10:26:25.408Z,4.08
2018-02-07T10:27:25.464Z,4.08
2018-02-07T10:28:25.417Z,4.1
2018-02-07T10:29:25.494Z,4.1
2018-02-07T10:30:25.474Z,4.11
2018-02-07T10:31:25.469Z,4.09
2018-02-07T10:32:25.397Z,4.07
2018-02-07T10:33:25.425Z,4.09
2018-02-07T10:34:25.305Z,4.13
2018-02-07T10:35:25.319Z,4.16
2018-02-07T10:36:25.501Z,4.12
2018-02-07T10:37:25.429Z,4.12
2018-02-07T10:38:25.468Z,4.1
2018-02-07T10:39:25.427Z,4.12
2018-02-07T10:40:25.492Z,4.12
2018-02-07T10:41:25.470Z,4.09
2018-02-07T10:42:25.518Z,4.08
2018-02-07T10:43:25.456Z,4.08
2018-02-07T10:44:25.603Z,4.11
2018-02-07T10:45:25.462Z,4.11
2018-02-07T10:46:25.420Z,4.08
2018-02-07T10:47:25.439Z,4.11
2018-02-07T10:48:25.630Z,4.13
2018-02-07T10:49:25.660Z,4.13
2018-02-07T10:50:25.567Z,4.11
2018-02-07T10:51:25.646Z,4.08
2018-02-07T10:52:25.610Z,4.09
2018-02-07T10:53:25.605Z,4.11
2018-02-07T10:54:25.620Z,4.07
2018-02-07T10:55:25.396Z,4.08
2018-02-07T10:56:25.504Z,4.11
2018-02-07T10:57:25.493Z,4.09
2018-02-07T10:58:25.655Z,4.09
2018-02-07T10:59:25.661Z,4.11
2018-02-07T11:00:25.621Z,4.12
2018-02-07T11:01:25.481Z,4.09
2018-02-07T11:02:25.623Z,4.11
2018-02-07T11:03:25.833Z,4.13
2018-02-07T11:04:25.502Z,4.12
2018-02-07T11:05:25.508Z,4.16
2018-02-07T11:06:25.627Z,4.11
2018-02-07T11:07:25.581Z,4.11
2018-02-07T11:08:25.550Z,4.14
2018-02-07T11:09:25.660Z,4.11
2018-02-07T11:10:25.531Z,4.14
2018-02-07T11:11:25.479Z,4.13
2018-02-07T11:12:25.591Z,4.11
2018-02-07T11:13:25.518Z,4.11
2018-02-07T11:14:25.467Z,4.12
2018-02-07T11:15:25.470Z,4.11
2018-02-07T11:16:25.434Z,4.11
2018-02-07T11:17:25.663Z,4.14
2018-02-07T11:18:25.567Z,4.16
2018-02-07T11:19:25.474Z,4.1
2018-02-07T11:20:25.949Z,4.12
2018-02-07T11:21:25.430Z,4.16
2018-02-07T11:22:25.333Z,4.16
2018-02-07T11:23:25.309Z,4.19
2018-02-07T11:24:25.321Z,4.2
2018-02-07T11:25:25.358Z,4.14
2018-02-07T11:26:25.284Z,4.12
2018-02-07T11:27:25.335Z,4.13
2018-02-07T11:28:25.381Z,4.1
2018-02-07T11:29:25.367Z,4.15
2018-02-07T11:30:25.248Z,4.14
2018-02-07T11:31:25.465Z,4.11
2018-02-07T11:32:25.376Z,4.14
2018-02-07T11:33:25.285Z,4.13
2018-02-07T11:34:25.286Z,4.16
2018-02-07T11:35:25.233Z,4.17
2018-02-07T11:36:25.433Z,4.14
2018-02-07T11:37:25.402Z,4.14
2018-02-07T11:38:25.307Z,4.14
2018-02-07T11:39:25.454Z,4.13
2018-02-07T11:40:25.371Z,4.15
2018-02-07T11:41:25.377Z,4.17
2018-02-07T11:42:25.228Z,4.13
2018-02-07T11:43:25.302Z,4.07
2018-02-07T11:44:25.387Z,4.09
2018-02-07T11:45:25.489Z,4.1
2018-02-07T11:46:25.322Z,4.11
2018-02-07T11:47:25.365Z,4.09
2018-02-07T11:48:25.323Z,4.08
2018-02-07T11:49:25.294Z,4.12
2018-02-07T11:50:25.439Z,4.07
2018-02-07T11:51:25.326Z,4.12
2018-02-07T11:52:25.345Z,4.11
2018-02-07T11:53:25.381Z,4.11
2018-02-07T11:54:25.399Z,4.12
2018-02-07T11:55:25.286Z,4.1
2018-02-07T11:56:25.253Z,3.99
2018-02-07T11:57:25.405Z,4.03
2018-02-07T11:58:25.289Z,3.99
2018-02-07T11:59:25.397Z,3.92
2018-02-07T12:00:25.402Z,3.9
2018-02-07T12:01:25.291Z,3.99
2018-02-07T12:02:25.308Z,4.01
2018-02-07T12:03:25.300Z,4.01
2018-02-07T12:04:25.383Z,4.04
2018-02-07T12:05:25.334Z,4.03
2018-02-07T12:06:25.343Z,4
2018-02-07T12:07:25.279Z,4.01
2018-02-07T12:08:25.413Z,4.01
2018-02-07T12:09:25.331Z,4.03
2018-02-07T12:10:25.476Z,3.98
2018-02-07T12:11:25.322Z,3.99
2018-02-07T12:12:25.430Z,3.99
2018-02-07T12:13:25.406Z,3.99
2018-02-07T12:14:25.404Z,3.94
2018-02-07T12:15:25.494Z,3.99
2018-02-07T12:16:25.424Z,3.95
2018-02-07T12:17:25.386Z,3.97
2018-02-07T12:18:25.310Z,4.03
2018-02-07T12:19:25.308Z,4.03
2018-02-07T12:20:25.505Z,4.01
2018-02-07T12:21:25.310Z,4.04
2018-02-07T12:22:26.084Z,4
2018-02-07T12:23:26.153Z,4.02
2018-02-07T12:24:26.161Z,4
2018-02-07T12:25:26.259Z,4.03
2018-02-07T12:26:26.276Z,4.02
2018-02-07T12:27:26.212Z,4.03
2018-02-07T12:28:26.245Z,4.02
2018-02-07T12:29:26.731Z,3.98
2018-02-07T12:30:26.101Z,4.03
2018-02-07T12:31:26.468Z,4.01
2018-02-07T12:32:26.078Z,4.03
2018-02-07T12:33:26.082Z,4.01
2018-02-07T12:34:26.163Z,4.01
2018-02-07T12:35:26.173Z,4.02
2018-02-07T12:36:26.142Z,4.07
2018-02-07T12:37:26.229Z,4.06
2018-02-07T12:38:26.186Z,4.02
2018-02-07T12:39:26.151Z,4.01
2018-02-07T12:40:26.157Z,4.04
2018-02-07T12:41:26.174Z,4.05
2018-02-07T12:42:26.112Z,4.03
2018-02-07T12:43:26.234Z,4.05
2018-02-07T12:44:26.103Z,4.05
2018-02-07T12:45:26.157Z,3.95
2018-02-07T12:46:26.399Z,3.95
2018-02-07T12:47:26.313Z,4.01
2018-02-07T12:48:26.268Z,3.96
2018-02-07T12:49:26.308Z,3.99
2018-02-07T12:50:26.224Z,3.97
2018-02-07T12:51:26.177Z,3.95
2018-02-07T12:52:26.441Z,3.96
2018-02-07T12:53:26.050Z,4
2018-02-07T12:54:26.294Z,4.01
2018-02-07T12:55:26.135Z,4.02
2018-02-07T12:56:26.060Z,4.03
2018-02-07T12:57:26.055Z,4.04
2018-02-07T12:58:26.230Z,4.03
2018-02-07T12:59:26.032Z,4.04
2018-02-07T13:00:26.099Z,4.03
2018-02-07T13:01:26.284Z,4.06
2018-02-07T13:02:26.243Z,4.09
2018-02-07T13:03:26.266Z,4.04
2018-02-07T13:04:26.175Z,4.04
2018-02-07T13:05:26.253Z,4.02
2018-02-07T13:06:26.108Z,4.04
2018-02-07T13:07:26.117Z,4.1
2018-02-07T13:08:26.192Z,4.1
2018-02-07T13:09:26.094Z,4.11
2018-02-07T13:10:26.011Z,4.08
2018-02-07T13:11:26.174Z,4.09
2018-02-07T13:12:25.954Z,4.02
2018-02-07T13:13:26.047Z,4.04
2018-02-07T13:14:26.163Z,4.05
2018-02-07T13:15:26.089Z,4.06
2018-02-07T13:16:26.094Z,4.04
2018-02-07T13:17:26.033Z,4.06
2018-02-07T13:18:26.089Z,4.06
2018-02-07T13:19:26.089Z,4.13
2018-02-07T13:20:26.162Z,4.14
2018-02-07T13:21:26.190Z,4.18
2018-02-07T13:22:26.185Z,4.14
2018-02-07T13:23:26.195Z,4.13